createdAt,value
2022-09-12T00:00:56.454Z,90.8
2022-09-12T00:01:56.451Z,90.7
2022-09-12T00:02:56.402Z,90.6
2022-09-12T00:03:56.411Z,91.1
2022-09-12T00:04:56.450Z,91.5
2022-09-12T00:05:56.397Z,91.8
2022-09-12T00:06:56.791Z,92.3
2022-09-12T00:07:56.413Z,92.6
2022-09-12T00:08:56.399Z,92.7
2022-09-12T00:09:56.420Z,92.7
2022-09-12T00:10:56.409Z,92.7
2022-09-12T00:11:56.404Z,93
2022-09-12T00:12:56.401Z,92.9
2022-09-12T00:13:56.401Z,92.8
2022-09-12T00:14:56.425Z,92.7
2022-09-12T00:15:56.409Z,92.4
2022-09-12T00:16:56.397Z,92
2022-09-12T00:17:56.411Z,92
2022-09-12T00:18:56.418Z,91.9
2022-09-12T00:19:56.411Z,91.6
2022-09-12T00:20:56.405Z,91.7
2022-09-12T00:22:56.407Z,91.8
2022-09-12T00:23:56.403Z,91.7
2022-09-12T00:24:56.418Z,91.8
2022-09-12T00:25:56.437Z,91.6
2022-09-12T00:26:56.439Z,91.8
2022-09-12T00:27:56.406Z,92.1
2022-09-12T00:28:56.414Z,92
2022-09-12T00:29:56.427Z,92
2022-09-12T00:30:56.411Z,91.9
2022-09-12T00:31:56.497Z,91.8
2022-09-12T00:32:56.406Z,91.7
2022-09-12T00:33:56.409Z,91.5
2022-09-12T00:34:56.407Z,91.3
2022-09-12T00:35:56.410Z,90.9
2022-09-12T00:36:56.418Z,90.9
2022-09-12T00:37:56.404Z,90.7
2022-09-12T00:38:56.445Z,90.6
2022-09-12T00:39:56.490Z,90.3
2022-09-12T00:40:56.408Z,90.2
2022-09-12T00:41:56.411Z,90.1
2022-09-12T00:42:56.400Z,90.1
2022-09-12T00:43:56.466Z,90.2
2022-09-12T00:44:56.406Z,90.2
2022-09-12T00:45:56.474Z,90.3
2022-09-12T00:46:56.404Z,90.3
2022-09-12T00:47:56.405Z,90.4
2022-09-12T00:48:56.418Z,90.4
2022-09-12T00:49:56.411Z,90.5
2022-09-12T00:50:56.405Z,90.5
2022-09-12T00:51:56.401Z,90.6
2022-09-12T00:52:56.422Z,90.5
2022-09-12T00:53:56.402Z,90.5
2022-09-12T00:54:56.407Z,90.5
2022-09-12T00:55:56.402Z,90.5
2022-09-12T00:56:56.437Z,90.7
2022-09-12T00:57:56.402Z,90.6
2022-09-12T00:58:56.409Z,90.3
2022-09-12T00:59:56.403Z,90.2
2022-09-12T01:00:56.488Z,90.1
2022-09-12T01:01:56.505Z,90
2022-09-12T01:02:57.479Z,90
2022-09-12T01:03:56.410Z,90
2022-09-12T01:04:56.414Z,89.8
2022-09-12T01:05:56.404Z,89.7
2022-09-12T01:06:56.419Z,89.5
2022-09-12T01:07:56.406Z,89.4
2022-09-12T01:08:56.416Z,89.3
2022-09-12T01:09:56.405Z,89.1
2022-09-12T01:10:56.405Z,89.2
2022-09-12T01:11:56.412Z,89.1
2022-09-12T01:12:56.411Z,89.2
2022-09-12T01:13:56.410Z,89.3
2022-09-12T01:14:56.416Z,89.3
2022-09-12T01:15:56.420Z,89.3
2022-09-12T01:16:56.406Z,89.3
2022-09-12T01:17:56.415Z,89.2
2022-09-12T01:18:56.411Z,89.1
2022-09-12T01:19:56.413Z,88.9
2022-09-12T01:20:56.412Z,88.7
2022-09-12T01:21:53.626Z,88.5
2022-09-12T01:22:56.430Z,88.3
2022-09-12T01:23:56.419Z,88.2
2022-09-12T01:24:56.409Z,88.2
2022-09-12T01:25:56.407Z,88.1
2022-09-12T01:26:56.412Z,88
2022-09-12T01:27:56.433Z,88
2022-09-12T01:28:56.422Z,88
2022-09-12T01:29:56.417Z,88
2022-09-12T01:30:56.449Z,88
2022-09-12T01:31:56.457Z,88
2022-09-12T01:32:56.423Z,88
2022-09-12T01:33:56.417Z,88.2
2022-09-12T01:34:56.426Z,88.1
2022-09-12T01:35:56.416Z,88.1
2022-09-12T01:36:56.416Z,87.9
2022-09-12T01:37:56.409Z,88.1
2022-09-12T01:38:56.424Z,88
2022-09-12T01:39:56.472Z,88
2022-09-12T01:40:56.413Z,87.8
2022-09-12T01:41:56.418Z,87.9
2022-09-12T01:42:56.402Z,87.8
2022-09-12T01:43:56.412Z,87.7
2022-09-12T01:44:56.415Z,87.6
2022-09-12T01:45:56.472Z,87.6
2022-09-12T01:46:56.412Z,88.6
2022-09-12T01:47:56.407Z,88.9
2022-09-12T01:48:56.415Z,88.7
2022-09-12T01:49:56.418Z,88.8
2022-09-12T01:50:56.420Z,88.8
2022-09-12T01:51:56.420Z,88.6
2022-09-12T01:52:56.424Z,88.5
2022-09-12T01:53:56.414Z,88.3
2022-09-12T01:54:56.420Z,88.1
2022-09-12T01:55:56.410Z,88.1
2022-09-12T01:56:56.404Z,88
2022-09-12T01:57:56.415Z,87.8
2022-09-12T01:58:56.444Z,87.8
2022-09-12T01:59:56.417Z,87.9
2022-09-12T02:00:56.443Z,87.7
2022-09-12T02:01:56.508Z,87.7
2022-09-12T02:02:56.460Z,87.4
2022-09-12T02:03:56.426Z,87.2
2022-09-12T02:04:56.448Z,87.2
2022-09-12T02:05:56.410Z,87.3
2022-09-12T02:06:56.421Z,87.2
2022-09-12T02:07:56.465Z,87.1
2022-09-12T02:08:56.427Z,87.2
2022-09-12T02:09:56.414Z,87.5
2022-09-12T02:10:56.415Z,87.5
2022-09-12T02:11:56.426Z,87.8
2022-09-12T02:12:56.803Z,87.9
2022-09-12T02:13:56.431Z,88.2
2022-09-12T02:14:56.425Z,88.4
2022-09-12T02:15:56.416Z,88.4
2022-09-12T02:16:56.428Z,88.5
2022-09-12T02:17:56.434Z,89
2022-09-12T02:18:56.423Z,89.1
2022-09-12T02:19:56.425Z,89.3
2022-09-12T02:20:56.414Z,89.5
2022-09-12T02:21:56.416Z,89.8
2022-09-12T02:22:56.422Z,90
2022-09-12T02:23:56.429Z,90.1
2022-09-12T02:24:56.418Z,90
2022-09-12T02:25:56.425Z,90
2022-09-12T02:26:56.413Z,90.3
2022-09-12T02:27:56.416Z,90.3
2022-09-12T02:28:56.425Z,90.5
2022-09-12T02:29:56.454Z,90.6
2022-09-12T02:30:56.558Z,90.5
2022-09-12T02:31:56.424Z,90.5
2022-09-12T02:32:56.415Z,90.5
2022-09-12T02:33:56.423Z,90.5
2022-09-12T02:34:56.455Z,90.4
2022-09-12T02:35:56.420Z,90.4
2022-09-12T02:36:56.421Z,90.3
2022-09-12T02:37:56.427Z,90.3
2022-09-12T02:38:56.422Z,90.2
2022-09-12T02:39:56.459Z,90
2022-09-12T02:40:56.412Z,90
2022-09-12T02:41:56.425Z,89.9
2022-09-12T02:42:56.422Z,90.2
2022-09-12T02:43:56.444Z,90
2022-09-12T02:44:56.425Z,89.8
2022-09-12T02:45:56.519Z,89.8
2022-09-12T02:46:56.422Z,89.7
2022-09-12T02:47:56.419Z,89.5
2022-09-12T02:48:56.418Z,89.5
2022-09-12T02:49:56.447Z,89.8
2022-09-12T02:50:56.428Z,90
2022-09-12T02:51:56.427Z,90
2022-09-12T02:52:56.461Z,90.3
2022-09-12T02:53:56.428Z,90.9
2022-09-12T02:54:56.422Z,90.8
2022-09-12T02:55:56.430Z,91.2
2022-09-12T02:56:56.428Z,91.5
2022-09-12T02:57:56.431Z,91.7
2022-09-12T02:58:56.428Z,92
2022-09-12T02:59:56.418Z,92.2
2022-09-12T03:00:56.502Z,92.2
2022-09-12T03:01:56.461Z,92.4
2022-09-12T03:02:56.428Z,92.9
2022-09-12T03:03:56.426Z,92.9
2022-09-12T03:04:56.421Z,92.8
2022-09-12T03:05:56.415Z,92.7
2022-09-12T03:06:56.423Z,92.8
2022-09-12T03:07:56.421Z,92.5
2022-09-12T03:08:56.433Z,92.2
2022-09-12T03:09:56.413Z,91.9
2022-09-12T03:10:56.418Z,91.5
2022-09-12T03:11:56.420Z,91.2
2022-09-12T03:12:56.420Z,90.7
2022-09-12T03:13:56.457Z,90.4
2022-09-12T03:14:56.446Z,89.8
2022-09-12T03:15:56.426Z,89.5
2022-09-12T03:16:56.422Z,89.2
2022-09-12T03:17:56.430Z,89
2022-09-12T03:18:56.425Z,88.8
2022-09-12T03:19:56.415Z,88.6
2022-09-12T03:20:56.416Z,88.4
2022-09-12T03:21:56.426Z,88.2
2022-09-12T03:22:56.423Z,88.2
2022-09-12T03:23:56.421Z,88.1
2022-09-12T03:24:56.416Z,88.1
2022-09-12T03:25:56.429Z,88.1
2022-09-12T03:26:56.422Z,88.2
2022-09-12T03:27:56.433Z,88.2
2022-09-12T03:28:56.425Z,88.1
2022-09-12T03:29:56.425Z,88.4
2022-09-12T03:30:56.659Z,88.3
2022-09-12T03:31:56.449Z,88.3
2022-09-12T03:32:56.419Z,88.7
2022-09-12T03:33:56.434Z,89.9
2022-09-12T03:34:56.425Z,90.1
2022-09-12T03:35:56.423Z,90.1
2022-09-12T03:36:56.420Z,89.9
2022-09-12T03:37:56.463Z,89.8
2022-09-12T03:38:56.425Z,89.7
2022-09-12T03:39:56.492Z,89.3
2022-09-12T03:40:56.419Z,89.1
2022-09-12T03:41:56.428Z,88.8
2022-09-12T03:42:56.432Z,88.5
2022-09-12T03:43:56.432Z,88.2
2022-09-12T03:44:56.419Z,87.8
2022-09-12T03:45:56.466Z,87.5
2022-09-12T03:46:56.427Z,87.3
2022-09-12T03:47:56.427Z,87.1
2022-09-12T03:48:56.427Z,86.8
2022-09-12T03:49:56.421Z,86.8
2022-09-12T03:50:56.429Z,86.6
2022-09-12T03:51:56.426Z,86.7
2022-09-12T03:53:56.426Z,86.9
2022-09-12T03:54:56.427Z,87.1
2022-09-12T03:55:56.429Z,87.3
2022-09-12T03:56:56.427Z,87.2
2022-09-12T03:57:56.429Z,87.2
2022-09-12T03:58:56.423Z,87.1
2022-09-12T03:59:56.448Z,87
2022-09-12T04:00:56.535Z,86.8
2022-09-12T04:01:56.467Z,86.9
2022-09-12T04:02:56.446Z,86.9
2022-09-12T04:03:56.434Z,86.9
2022-09-12T04:04:56.428Z,86.9
2022-09-12T04:05:56.434Z,87
2022-09-12T04:06:56.436Z,86.9
2022-09-12T04:07:56.597Z,87
2022-09-12T04:08:56.431Z,87.1
2022-09-12T04:09:56.426Z,86.9
2022-09-12T04:10:56.437Z,87
2022-09-12T04:11:56.439Z,87.2
2022-09-12T04:12:56.436Z,87.4
2022-09-12T04:13:56.437Z,87.5
2022-09-12T04:14:56.438Z,87.9
2022-09-12T04:15:56.438Z,88.3
2022-09-12T04:16:56.449Z,88.7
2022-09-12T04:17:56.424Z,89
2022-09-12T04:18:56.429Z,89.5
2022-09-12T04:19:56.437Z,90.1
2022-09-12T04:20:56.438Z,90.1
2022-09-12T04:21:56.464Z,90.7
2022-09-12T04:22:56.429Z,90.8
2022-09-12T04:23:56.433Z,90.9
2022-09-12T04:24:56.430Z,90.9
2022-09-12T04:25:56.433Z,91
2022-09-12T04:26:56.427Z,91.1
2022-09-12T04:27:56.451Z,91.1
2022-09-12T04:28:56.432Z,91.1
2022-09-12T04:29:56.433Z,90.9
2022-09-12T04:30:56.485Z,91.1
2022-09-12T04:31:56.430Z,91.3
2022-09-12T04:32:56.436Z,91.4
2022-09-12T04:33:56.452Z,91.6
2022-09-12T04:34:56.438Z,91.8
2022-09-12T04:35:56.435Z,92.3
2022-09-12T04:36:56.430Z,92.3
2022-09-12T04:37:56.432Z,92.3
2022-09-12T04:38:56.429Z,92.4
2022-09-12T04:39:56.445Z,92.1
2022-09-12T04:40:56.432Z,92.7
2022-09-12T04:41:56.430Z,93
2022-09-12T04:42:56.488Z,93.1
2022-09-12T04:43:56.426Z,93.7
2022-09-12T04:44:56.434Z,94
2022-09-12T04:45:56.484Z,94.1
2022-09-12T04:46:56.445Z,94
2022-09-12T04:47:56.429Z,93.9
2022-09-12T04:48:57.182Z,93.8
2022-09-12T04:49:56.435Z,93.6
2022-09-12T04:50:56.440Z,93.3
2022-09-12T04:51:56.433Z,93.2
2022-09-12T04:52:56.484Z,93
2022-09-12T04:53:56.438Z,92.9
2022-09-12T04:54:56.428Z,92.8
2022-09-12T04:55:56.436Z,92.7
2022-09-12T04:56:56.434Z,92.6
2022-09-12T04:57:56.447Z,92.6
2022-09-12T04:58:56.430Z,92.7
2022-09-12T04:59:56.722Z,92.8
2022-09-12T05:00:56.487Z,92.6
2022-09-12T05:01:56.523Z,92.7
2022-09-12T05:02:56.429Z,92.5
2022-09-12T05:03:56.437Z,92.5
2022-09-12T05:04:56.457Z,92.5
2022-09-12T05:05:56.682Z,92.6
2022-09-12T05:06:56.435Z,92.8
2022-09-12T05:07:56.438Z,92.8
2022-09-12T05:08:56.430Z,92.8
2022-09-12T05:09:56.449Z,92.9
2022-09-12T05:10:56.439Z,92.8
2022-09-12T05:12:04.940Z,92.5
2022-09-12T05:12:56.438Z,92.5
2022-09-12T05:13:56.436Z,92.5
2022-09-12T05:14:56.435Z,92.7
2022-09-12T05:15:56.442Z,93.1
2022-09-12T05:16:56.481Z,93.2
2022-09-12T05:17:56.437Z,93.3
2022-09-12T05:18:56.434Z,93.3
2022-09-12T05:19:56.488Z,93.3
2022-09-12T05:20:56.442Z,93.1
2022-09-12T05:21:56.441Z,93.4
2022-09-12T05:22:56.441Z,93.2
2022-09-12T05:23:56.432Z,93.4
2022-09-12T05:24:56.472Z,93.5
2022-09-12T05:25:56.442Z,93.7
2022-09-12T05:26:56.455Z,93.7
2022-09-12T05:27:56.441Z,93.7
2022-09-12T05:28:56.446Z,93.9
2022-09-12T05:29:56.451Z,94
2022-09-12T05:30:56.520Z,93.6
2022-09-12T05:31:56.445Z,93.7
2022-09-12T05:32:56.443Z,93.6
2022-09-12T05:33:56.432Z,93.4
2022-09-12T05:34:56.438Z,93.2
2022-09-12T05:35:56.468Z,93
2022-09-12T05:36:56.438Z,92.8
2022-09-12T05:37:56.443Z,92.5
2022-09-12T05:38:56.435Z,92.3
2022-09-12T05:39:56.507Z,91.9
2022-09-12T05:40:56.439Z,91
2022-09-12T05:41:56.439Z,90.4
2022-09-12T05:42:56.436Z,89.6
2022-09-12T05:43:56.435Z,88.8
2022-09-12T05:44:56.436Z,88.8
2022-09-12T05:45:56.490Z,88.7
2022-09-12T05:46:56.470Z,88.4
2022-09-12T05:47:56.442Z,88.5
2022-09-12T05:48:56.926Z,87.8
2022-09-12T05:49:56.440Z,87.7
2022-09-12T05:50:56.437Z,87.5
2022-09-12T05:51:56.501Z,87.2
2022-09-12T05:52:56.457Z,87.1
2022-09-12T05:53:56.438Z,87.2
2022-09-12T05:54:56.441Z,87.2
2022-09-12T05:55:56.449Z,86.8
2022-09-12T05:56:56.436Z,86.8
2022-09-12T05:57:56.444Z,86.6
2022-09-12T05:58:56.442Z,86.2
2022-09-12T05:59:56.434Z,85.7
2022-09-12T06:00:56.442Z,85.7
2022-09-12T06:01:56.474Z,85.4
2022-09-12T06:02:56.447Z,85
2022-09-12T06:03:56.444Z,84.7
2022-09-12T06:04:56.440Z,84.4
2022-09-12T06:05:56.461Z,84.4
2022-09-12T06:06:56.461Z,84.1
2022-09-12T06:07:56.442Z,84.2
2022-09-12T06:08:56.442Z,83.8
2022-09-12T06:09:56.439Z,83.2
2022-09-12T06:10:59.249Z,82.9
2022-09-12T06:11:56.454Z,82.8
2022-09-12T06:12:56.437Z,82.4
2022-09-12T06:13:56.480Z,82.5
2022-09-12T06:14:56.444Z,81.6
2022-09-12T06:15:56.469Z,81.2
2022-09-12T06:17:56.435Z,80.6
2022-09-12T06:18:56.494Z,80.6
2022-09-12T06:19:56.441Z,80.6
2022-09-12T06:20:56.446Z,80
2022-09-12T06:21:56.456Z,80.3
2022-09-12T06:22:56.438Z,80.7
2022-09-12T06:23:56.446Z,80.9
2022-09-12T06:24:58.090Z,80.5
2022-09-12T06:25:56.439Z,81.2
2022-09-12T06:26:56.444Z,81.6
2022-09-12T06:27:56.446Z,81.7
2022-09-12T06:28:56.442Z,81.8
2022-09-12T06:29:56.440Z,81.7
2022-09-12T06:30:56.473Z,81.5
2022-09-12T06:31:56.437Z,81.3
2022-09-12T06:32:56.437Z,81.3
2022-09-12T06:33:56.435Z,81.5
2022-09-12T06:34:56.443Z,81.6
2022-09-12T06:35:56.444Z,81.5
2022-09-12T06:36:56.446Z,81.9
2022-09-12T06:37:56.471Z,82.1
2022-09-12T06:38:56.456Z,82.2
2022-09-12T06:39:56.500Z,82.2
2022-09-12T06:40:56.440Z,82.4
2022-09-12T06:41:56.439Z,82.6
2022-09-12T06:42:56.450Z,82.5
2022-09-12T06:43:56.446Z,82.4
2022-09-12T06:44:56.464Z,82
2022-09-12T06:45:56.551Z,81.8
2022-09-12T06:46:56.463Z,81.7
2022-09-12T06:47:56.444Z,81.4
2022-09-12T06:48:56.444Z,81.2
2022-09-12T06:49:56.450Z,81.2
2022-09-12T06:50:56.448Z,81.1
2022-09-12T06:51:56.441Z,80.2
2022-09-12T06:52:56.441Z,80.7
2022-09-12T06:53:56.460Z,80.5
2022-09-12T06:54:56.442Z,79.7
2022-09-12T06:55:56.447Z,79.8
2022-09-12T06:56:56.451Z,80
2022-09-12T06:57:56.450Z,79.6
2022-09-12T06:58:56.450Z,79.1
2022-09-12T06:59:56.439Z,78.1
2022-09-12T07:00:59.107Z,77.5
2022-09-12T07:01:56.554Z,77.7
2022-09-12T07:02:56.454Z,77.1
2022-09-12T07:03:56.444Z,76.9
2022-09-12T07:04:56.440Z,76.6
2022-09-12T07:05:56.444Z,76.6
2022-09-12T07:06:56.441Z,76.4
2022-09-12T07:07:56.446Z,76.1
2022-09-12T07:08:56.474Z,75.9
2022-09-12T07:09:56.443Z,75.7
2022-09-12T07:10:56.457Z,75.1
2022-09-12T07:11:56.460Z,74.8
2022-09-12T07:12:56.450Z,74.6
2022-09-12T07:13:56.455Z,74.6
2022-09-12T07:14:56.453Z,74.4
2022-09-12T07:15:56.459Z,74.4
2022-09-12T07:16:56.590Z,74.6
2022-09-12T07:17:56.452Z,74.2
2022-09-12T07:18:56.451Z,74.2
2022-09-12T07:19:56.449Z,73.8
2022-09-12T07:20:56.491Z,73.7
2022-09-12T07:21:58.638Z,73.5
2022-09-12T07:22:56.460Z,73.3
2022-09-12T07:23:56.455Z,73.3
2022-09-12T07:24:56.459Z,73
2022-09-12T07:25:56.451Z,72.9
2022-09-12T07:26:56.447Z,72.9
2022-09-12T07:27:56.447Z,72.7
2022-09-12T07:29:07.805Z,72.6
2022-09-12T07:29:56.446Z,72.6
2022-09-12T07:30:56.511Z,72.8
2022-09-12T07:31:56.448Z,72.7
2022-09-12T07:32:56.453Z,72.7
2022-09-12T07:33:56.612Z,72.4
2022-09-12T07:34:56.460Z,72.5
2022-09-12T07:35:56.451Z,72.4
2022-09-12T07:36:56.464Z,72.6
2022-09-12T07:37:56.454Z,72.9
2022-09-12T07:38:57.636Z,72.6
2022-09-12T07:39:56.532Z,72.4
2022-09-12T07:40:56.458Z,72.5
2022-09-12T07:41:56.452Z,72.6
2022-09-12T07:42:57.133Z,73
2022-09-12T07:43:56.466Z,73
2022-09-12T07:44:56.453Z,73.2
2022-09-12T07:45:56.532Z,73.5
2022-09-12T07:46:56.472Z,73.7
2022-09-12T07:47:56.458Z,74
2022-09-12T07:48:56.462Z,74
2022-09-12T07:49:56.456Z,74
2022-09-12T07:50:56.462Z,74.3
2022-09-12T07:51:56.460Z,74.2
2022-09-12T07:52:56.463Z,74.1
2022-09-12T07:53:56.589Z,73.7
2022-09-12T07:54:56.461Z,73.5
2022-09-12T07:55:56.454Z,73.5
2022-09-12T07:56:56.457Z,73.3
2022-09-12T07:57:56.465Z,73.1
2022-09-12T07:58:56.454Z,72.8
2022-09-12T07:59:56.455Z,72.5
2022-09-12T08:00:56.459Z,72.2
2022-09-12T08:01:56.454Z,71.6
2022-09-12T08:02:56.517Z,71.4
2022-09-12T08:03:56.457Z,70.9
2022-09-12T08:04:56.458Z,70.7
2022-09-12T08:05:56.465Z,70.1
2022-09-12T08:06:56.456Z,69.2
2022-09-12T08:07:57.838Z,69.2
2022-09-12T08:08:56.465Z,67.9
2022-09-12T08:09:56.546Z,68.2
2022-09-12T08:10:56.481Z,68.4
2022-09-12T08:11:56.464Z,68.5
2022-09-12T08:12:56.465Z,68.1
2022-09-12T08:13:56.553Z,67.8
2022-09-12T08:14:56.463Z,67.5
2022-09-12T08:15:56.493Z,67.2
2022-09-12T08:16:56.461Z,66.4
2022-09-12T08:17:56.462Z,66
2022-09-12T08:18:56.469Z,65.3
2022-09-12T08:19:56.514Z,64.1
2022-09-12T08:20:56.465Z,63.4
2022-09-12T08:21:56.465Z,62.5
2022-09-12T08:22:56.463Z,62.2
2022-09-12T08:23:56.463Z,60.9
2022-09-12T08:24:56.465Z,59.5
2022-09-12T08:25:56.463Z,59.2
2022-09-12T08:26:56.469Z,60.2
2022-09-12T08:27:56.470Z,59.6
2022-09-12T08:28:56.476Z,59.4
2022-09-12T08:29:56.464Z,58.9
2022-09-12T08:30:56.488Z,58.3
2022-09-12T08:31:57.419Z,57.8
2022-09-12T08:32:56.473Z,56.8
2022-09-12T08:33:56.471Z,55.7
2022-09-12T08:34:56.468Z,54.3
2022-09-12T08:35:56.466Z,52.1
2022-09-12T08:36:56.468Z,50.1
2022-09-12T08:37:56.477Z,49.5
2022-09-12T08:38:59.687Z,48.8
2022-09-12T08:39:56.580Z,46.9
2022-09-12T08:40:56.469Z,45.5
2022-09-12T08:41:56.497Z,43.4
2022-09-12T08:43:57.076Z,43.5
2022-09-12T08:44:56.488Z,43.4
2022-09-12T08:45:56.524Z,43.6
2022-09-12T08:46:56.471Z,44.8
2022-09-12T08:47:56.476Z,45.7
2022-09-12T08:48:56.477Z,47
2022-09-12T08:49:56.478Z,46.6
2022-09-12T08:50:56.483Z,46.1
2022-09-12T08:51:56.476Z,45.8
2022-09-12T08:52:56.477Z,45.3
2022-09-12T08:53:56.482Z,44.7
2022-09-12T08:54:56.475Z,41.7
2022-09-12T08:55:56.468Z,41.8
2022-09-12T08:56:56.476Z,40.6
2022-09-12T08:57:56.481Z,40.1
2022-09-12T08:58:56.477Z,40.2
2022-09-12T08:59:56.476Z,39.8
2022-09-12T09:00:56.485Z,40.3
2022-09-12T09:01:56.503Z,40
2022-09-12T09:02:56.537Z,39.4
2022-09-12T09:03:56.481Z,40.6
2022-09-12T09:04:56.479Z,40.8
2022-09-12T09:05:56.480Z,39.6
2022-09-12T09:06:56.546Z,40.7
2022-09-12T09:07:56.483Z,40.2
2022-09-12T09:08:56.483Z,38.8
2022-09-12T09:09:56.485Z,37.7
2022-09-12T09:10:56.484Z,36.7
2022-09-12T09:11:56.482Z,36.2
2022-09-12T09:12:56.516Z,35.5
2022-09-12T09:13:56.491Z,35.3
2022-09-12T09:14:56.504Z,35.1
2022-09-12T09:15:56.544Z,33.8
2022-09-12T09:17:56.503Z,33.7
2022-09-12T09:18:56.498Z,34.1
2022-09-12T09:19:56.508Z,33.8
2022-09-12T09:20:56.493Z,33.8
2022-09-12T09:21:56.563Z,33.5
2022-09-12T09:22:56.491Z,33.2
2022-09-12T09:23:56.502Z,33.5
2022-09-12T09:24:56.501Z,33.1
2022-09-12T09:25:56.490Z,33
2022-09-12T09:26:56.498Z,32.4
2022-09-12T09:27:56.490Z,32.2
2022-09-12T09:28:56.505Z,34.2
2022-09-12T09:29:56.491Z,33.6
2022-09-12T09:30:56.594Z,32.7
2022-09-12T09:31:56.502Z,32.8
2022-09-12T09:32:56.526Z,32.8
2022-09-12T09:33:56.491Z,33.8
2022-09-12T09:34:56.490Z,34.9
2022-09-12T09:35:56.502Z,34.2
2022-09-12T09:36:56.492Z,35
2022-09-12T09:37:58.707Z,33.8
2022-09-12T09:38:56.499Z,34.4
2022-09-12T09:39:56.529Z,34.5
2022-09-12T09:40:56.493Z,33.5
2022-09-12T09:41:56.500Z,32.3
2022-09-12T09:42:50.671Z,33.7
2022-09-12T09:43:56.601Z,31.3
2022-09-12T09:44:56.496Z,32.1
2022-09-12T09:45:56.583Z,31
2022-09-12T09:46:56.502Z,31.4
2022-09-12T09:47:56.536Z,30.5
2022-09-12T09:48:56.571Z,28.7
2022-09-12T09:49:56.499Z,29.7
2022-09-12T09:50:56.503Z,28.6
2022-09-12T09:51:58.807Z,26.7
2022-09-12T09:52:56.503Z,26.7
2022-09-12T09:53:56.508Z,28.1
2022-09-12T09:54:56.507Z,28
2022-09-12T09:55:56.506Z,27.6
2022-09-12T09:56:56.510Z,26.9
2022-09-12T09:57:56.516Z,26.2
2022-09-12T09:58:56.505Z,26.7
2022-09-12T09:59:56.503Z,26.7
2022-09-12T10:00:56.864Z,27.1
2022-09-12T10:01:56.506Z,26.7
2022-09-12T10:02:56.559Z,26.3
2022-09-12T10:03:56.510Z,24
2022-09-12T10:04:56.512Z,25.1
2022-09-12T10:05:56.509Z,24.6
2022-09-12T10:06:56.514Z,24.5
2022-09-12T10:07:56.527Z,24.8
2022-09-12T10:08:56.516Z,25.4
2022-09-12T10:09:56.509Z,26.1
2022-09-12T10:10:56.511Z,26
2022-09-12T10:11:56.519Z,25.3
2022-09-12T10:12:56.514Z,25.7
2022-09-12T10:13:56.518Z,24.9
2022-09-12T10:14:56.609Z,24.1
2022-09-12T10:15:56.597Z,23.6
2022-09-12T10:16:56.512Z,24.1
2022-09-12T10:17:56.524Z,23.8
2022-09-12T10:18:56.511Z,23.2
2022-09-12T10:20:17.463Z,22.8
2022-09-12T10:20:56.558Z,22.7
2022-09-12T10:21:56.518Z,22.1
2022-09-12T10:22:56.523Z,22.1
2022-09-12T10:23:56.518Z,20.9
2022-09-12T10:24:56.527Z,20.7
2022-09-12T10:25:56.564Z,21.3
2022-09-12T10:26:57.121Z,21.5
2022-09-12T10:27:56.522Z,21.9
2022-09-12T10:28:56.530Z,20.8
2022-09-12T10:29:56.531Z,21.4
2022-09-12T10:30:56.691Z,21.9
2022-09-12T10:31:56.531Z,21.6
2022-09-12T10:32:56.524Z,21
2022-09-12T10:33:56.528Z,21.5
2022-09-12T10:34:56.529Z,20.6
2022-09-12T10:35:56.528Z,21
2022-09-12T10:36:56.534Z,22.4
2022-09-12T10:37:56.524Z,22.2
2022-09-12T10:38:56.525Z,22.6
2022-09-12T10:39:56.567Z,22.1
2022-09-12T10:40:56.536Z,21.4
2022-09-12T10:41:56.532Z,21.1
2022-09-12T10:42:56.539Z,21.6
2022-09-12T10:43:56.533Z,21.4
2022-09-12T10:44:56.524Z,21.8
2022-09-12T10:45:56.650Z,21.7
2022-09-12T10:46:56.539Z,21.5
2022-09-12T10:47:56.540Z,20.7
2022-09-12T10:48:56.540Z,20.4
2022-09-12T10:49:56.528Z,20.7
2022-09-12T10:50:56.535Z,19.9
2022-09-12T10:51:56.537Z,21
2022-09-12T10:52:56.536Z,20.5
2022-09-12T10:53:56.534Z,20.3
2022-09-12T10:54:56.535Z,20
2022-09-12T10:55:56.537Z,19.4
2022-09-12T10:56:56.529Z,20.3
2022-09-12T10:57:56.544Z,20.7
2022-09-12T10:58:56.544Z,20.6
2022-09-12T10:59:56.535Z,21.7
2022-09-12T11:00:56.548Z,21.2
2022-09-12T11:01:56.537Z,22.3
2022-09-12T11:02:56.596Z,22.3
2022-09-12T11:03:56.548Z,21.7
2022-09-12T11:04:56.542Z,21.5
2022-09-12T11:05:56.572Z,20.7
2022-09-12T11:06:56.549Z,20.8
2022-09-12T11:07:56.613Z,20.3
2022-09-12T11:08:56.545Z,20.8
2022-09-12T11:09:56.549Z,20.8
2022-09-12T11:10:56.557Z,20.3
2022-09-12T11:12:56.543Z,20.6
2022-09-12T11:13:56.542Z,20.7
2022-09-12T11:14:56.553Z,20.8
2022-09-12T11:15:56.629Z,21.2
2022-09-12T11:16:56.576Z,22.5
2022-09-12T11:17:56.549Z,22.7
2022-09-12T11:18:56.550Z,22
2022-09-12T11:19:56.552Z,21.7
2022-09-12T11:20:56.557Z,21.7
2022-09-12T11:21:56.554Z,22.3
2022-09-12T11:22:56.547Z,22.9
2022-09-12T11:23:56.549Z,23.8
2022-09-12T11:24:56.553Z,23.7
2022-09-12T11:25:56.564Z,24.6
2022-09-12T11:26:56.554Z,25.1
2022-09-12T11:27:56.558Z,25.8
2022-09-12T11:28:56.549Z,26.2
2022-09-12T11:29:56.559Z,27.1
2022-09-12T11:30:56.599Z,27
2022-09-12T11:31:56.557Z,26.7
2022-09-12T11:32:56.609Z,27.2
2022-09-12T11:33:57.006Z,28.5
2022-09-12T11:34:56.564Z,28
2022-09-12T11:35:56.562Z,29.1
2022-09-12T11:36:56.576Z,28.8
2022-09-12T11:37:56.577Z,28.9
2022-09-12T11:38:56.563Z,29.2
2022-09-12T11:39:56.622Z,28.7
2022-09-12T11:40:56.589Z,29
2022-09-12T11:41:56.576Z,29.5
2022-09-12T11:42:56.568Z,31.1
2022-09-12T11:43:57.543Z,31.3
2022-09-12T11:44:56.561Z,31.4
2022-09-12T11:45:56.622Z,31.7
2022-09-12T11:46:56.559Z,32.1
2022-09-12T11:47:56.589Z,32.8
2022-09-12T11:48:56.565Z,32.8
2022-09-12T11:49:56.613Z,32.2
2022-09-12T11:50:56.568Z,32.9
2022-09-12T11:51:56.566Z,34.1
2022-09-12T11:52:56.570Z,34.5
2022-09-12T11:53:56.584Z,35.6
2022-09-12T11:54:56.561Z,36.1
2022-09-12T11:55:56.571Z,36.6
2022-09-12T11:57:56.570Z,36.6
2022-09-12T11:58:56.570Z,36.4
2022-09-12T11:59:56.570Z,36.6
2022-09-12T12:00:56.571Z,36.2
2022-09-12T12:01:56.567Z,36.1
2022-09-12T12:02:56.576Z,35.6
2022-09-12T12:03:56.634Z,36.3
2022-09-12T12:04:56.574Z,36
2022-09-12T12:05:56.573Z,35.9
2022-09-12T12:06:56.568Z,36.4
2022-09-12T12:07:56.575Z,36.9
2022-09-12T12:08:56.574Z,36.6
2022-09-12T12:10:56.574Z,36
2022-09-12T12:11:56.578Z,35.9
2022-09-12T12:12:56.580Z,36.6
2022-09-12T12:13:56.569Z,35.6
2022-09-12T12:14:56.574Z,36.5
2022-09-12T12:15:56.726Z,36.4
2022-09-12T12:16:56.578Z,36.2
2022-09-12T12:17:56.572Z,36.2
2022-09-12T12:18:56.603Z,36.4
2022-09-12T12:19:57.779Z,35.7
2022-09-12T12:20:56.580Z,35.6
2022-09-12T12:21:56.591Z,36
2022-09-12T12:22:56.574Z,36.6
2022-09-12T12:23:56.624Z,35.4
2022-09-12T12:24:56.577Z,35.5
2022-09-12T12:25:56.586Z,35.5
2022-09-12T12:26:56.595Z,34.4
2022-09-12T12:27:56.581Z,34.4
2022-09-12T12:28:56.595Z,34.1
2022-09-12T12:29:56.580Z,34.4
2022-09-12T12:30:56.698Z,34.3
2022-09-12T12:31:56.576Z,34.7
2022-09-12T12:32:56.589Z,35.4
2022-09-12T12:33:56.592Z,35.7
2022-09-12T12:34:56.589Z,35.4
2022-09-12T12:35:56.584Z,36
2022-09-12T12:36:56.579Z,35.2
2022-09-12T12:37:56.595Z,35.7
2022-09-12T12:38:56.586Z,36.7
2022-09-12T12:39:56.635Z,37.3
2022-09-12T12:40:56.600Z,37.5
2022-09-12T12:41:56.577Z,37.7
2022-09-12T12:42:56.584Z,37.7
2022-09-12T12:43:56.581Z,38.1
2022-09-12T12:44:56.584Z,38
2022-09-12T12:45:56.627Z,38.2
2022-09-12T12:46:56.596Z,37.9
2022-09-12T12:47:56.586Z,37.4
2022-09-12T12:48:56.594Z,36.8
2022-09-12T12:49:56.616Z,37.4
2022-09-12T12:50:56.591Z,37.8
2022-09-12T12:51:56.586Z,38.2
2022-09-12T12:52:56.589Z,38.4
2022-09-12T12:53:56.592Z,38.5
2022-09-12T12:54:56.596Z,37.7
2022-09-12T12:55:56.595Z,38.1
2022-09-12T12:56:56.580Z,39.2
2022-09-12T12:58:56.593Z,39.8
2022-09-12T12:59:56.591Z,39.2
2022-09-12T13:00:56.586Z,38.9
2022-09-12T13:01:56.639Z,37.7
2022-09-12T13:02:56.636Z,37.8
2022-09-12T13:03:56.586Z,37.5
2022-09-12T13:04:56.590Z,37.8
2022-09-12T13:05:56.610Z,38.1
2022-09-12T13:06:56.590Z,37.6
2022-09-12T13:07:56.590Z,37.2
2022-09-12T13:08:56.593Z,37.3
2022-09-12T13:09:56.591Z,36.1
2022-09-12T13:10:56.593Z,36.5
2022-09-12T13:11:56.595Z,36.5
2022-09-12T13:12:56.595Z,36.9
2022-09-12T13:13:56.589Z,38.1
2022-09-12T13:15:06.739Z,39.1
2022-09-12T13:15:56.675Z,38
2022-09-12T13:16:56.594Z,39.2
2022-09-12T13:17:56.593Z,39.7
2022-09-12T13:18:56.601Z,39.6
2022-09-12T13:20:16.810Z,39.4
2022-09-12T13:20:56.620Z,39.7
2022-09-12T13:21:56.591Z,40.1
2022-09-12T13:22:56.596Z,40.6
2022-09-12T13:23:56.600Z,39.7
2022-09-12T13:24:56.596Z,39.7
2022-09-12T13:25:56.604Z,39.2
2022-09-12T13:26:56.593Z,39.4
2022-09-12T13:27:56.648Z,38.3
2022-09-12T13:28:56.601Z,38.6
2022-09-12T13:29:56.601Z,38.2
2022-09-12T13:32:56.604Z,38.7
2022-09-12T13:33:56.602Z,38.4
2022-09-12T13:35:56.599Z,37.6